Etusivu
METAR-TAF:

METAR-TAF

Lentoasemat :

Decorah Municipal Airport

Decorah, Iowa, Yhdysvallat

Leveyspiiri: 43-17N, Pituuspiiri: 091-44W, korkeus merenpinnasta: 353 m

Tämänhetkinen sää

Tämä raportti tehtiin 34 minuuttia sitten, kello 20.15 UTC
Tuuli 11 kn luoteesta puuskistuen 20 kn:hen
Lämpötila -2°C
Kosteus 69%
Ilmanpaine 1021 hPa
Näkyvyys: 16.1 km

METAR: KDEH 262015Z AUTO 32011G20KT 10SM M02/M07 A3016 RMK AO2

Aika: 14:49 (20:49 UTC)


TAF: puuttuu

Säähavainnot ja -ennusteet yli 4000 lentoasemalta (METAR- ja TAF-raportit).

Käytössä olevat sääasemat on merkitty karttaan keltaisilla ja punaisilla pisteillä.

Aseta hiiri pisteen päälle nähdäksesi sääaseman nimen.

Klikkaa sitten nähdäksesi säähavainnot ja -ennusteet.

Kartan vaihtaminen: klikkaa mustalla rastilla varustettuja vihreitä pisteitä, niin voit zoomata sisään; viivalla varustettua vihreää pistettä, niin voit zoomata ulos tai vihreitä nuolia, niin pääset viereisille kartoille.


METAR-TAF: